McAlpin, West Virginia
Current Conditions -  °F | °C
As of 6:51 AM on Saturday 01 Nov 2014 (Local Time) from KBKW Reporting Station
Light Snow Light Snow  
Wind Chill: 29°   Ceiling: 200
Heat Index: 34°   Visibility: 5mi
Dew Point: 32°   Wind: 6mph
Humidity: 92%   Direction: 310°NW
Pressure: 29.83"   Gusts: NA
Location:  37.6919°N, 81.2784°W
Report Text: KBKW 011051Z AUTO 31005KT 5SM -SN BR OVC002 01/00 A2983 RMK AO2 SLP122 P0000 I1000 T00110000 TSNO
Loading
Personal Weather Stations






























Interactive Weather Map
Tropical Storm Tracking
New forecast layout! Learn more

10-Day Weather Forecast

Advertisements
Track Severe Weather on mobile